Latest Coastal Weather Observations for Tasman Island

IDT60701

Issued at 8:45 pm EST Saturday 19 April 2014 (issued every 10 minutes, with the page automatically refreshed every 10 minutes)

About coastal observations | Map of coastal stations | Coastal observations for TAS | Marine services | Other Formats
Station Details ID: 094155 Name: TASMAN ISLAND Lat: -43.24 Lon: 148.00 Height: 240.0 m
Data from the previous 72 hours. | See also: Recent months at Tasman Island
Date/Time
EST
Temp

°C
Wind Pressure Rain
since 9am
mm
Weather Cloud Vis
km
Sea
Height
m
Swell
Dir
 
Speed
knots
Gust
knots
hPa Trend Height
m
Period
s
Dir
19/08:30pm 9.8 W 5 13 1014.1 - 0.2 - - - - - - -
19/08:00pm 9.8 NNW 4 10 1014.1 - 0.2 - - - - - - -
19/07:00pm 9.7 SW 10 21 1014.3 - 0.2 - - - - - - -
19/06:30pm 9.7 WSW 8 19 1014.2 - 0.2 - - - - - - -
19/06:00pm 9.3 SSW 14 25 1013.9 - 0.2 - - - - - - -
19/05:30pm 9.3 SW 10 24 1013.9 - 0.2 - - - - - - -
19/05:00pm 8.7 SW 17 28 1013.8 - 0.2 - - - - - - -
19/04:39pm 9.1 SSW 15 33 1013.8 - 0.2 - - - - - - -
19/04:30pm 9.7 SW 13 28 1013.7 - 0.2 - - - - - - -
19/04:00pm 10.1 WSW 11 23 1013.7 - 0.2 - - - - - - -
19/03:32pm 10.1 SSW 15 28 1013.6 - 0.2 - - - - - - -
19/03:30pm 9.9 SW 14 28 1013.6 - 0.2 - - - - - - -
19/03:01pm 9.2 SW 15 30 1013.6 - 0.2 - - - - - - -
19/03:00pm 9.3 SW 14 29 1013.6 - 0.2 - - - - - - -
19/02:50pm 9.7 SW 15 34 1013.6 - 0.2 - - - - - - -
19/02:30pm 10.5 SW 13 26 1013.5 - 0.2 - - - - - - -
19/02:00pm 10.5 SW 13 25 1013.6 - 0.2 - - - - - - -
19/01:34pm 10.8 SW 24 35 1013.5 - 0.2 - - - - - - -
19/01:30pm 11.3 SW 12 30 1013.6 - 0.2 - - - - - - -
19/01:00pm 10.6 SW 15 29 1013.6 - 0.0 - - - - - - -
19/12:54pm 10.4 SW 15 29 1013.7 - 0.0 - - - - - - -
19/12:30pm 10.7 WSW 12 27 1013.9 - 0.0 - - - - - - -
19/12:00pm 10.6 SW 11 30 1014.0 - 0.0 - - - - - - -
19/11:30am 10.6 SW 18 31 1014.5 - 0.0 - - - - - - -
19/11:17am 10.4 SW 15 34 1014.2 - 0.0 - - - - - - -
19/11:00am 10.2 SW 14 31 1014.2 - 0.0 - - - - - - -
19/10:30am 10.7 WSW 12 29 1014.0 - 0.0 - - - - - - -
19/10:01am 10.4 SW 15 32 1013.9 - 0.0 - - - - - - -
19/10:00am 10.4 SW 14 32 1013.9 - 0.0 - - - - - - -
19/09:39am 10.3 SW 15 32 1013.8 - 0.0 - - - - - - -
19/09:30am 10.6 SW 12 29 1013.9 - 0.0 - - - - - - -
19/09:00am 9.8 SW 19 35 1013.7 - 9.4 - - - - - - -
19/08:30am 9.5 SSW 22 37 1013.6 - 9.4 - - - - - - -
19/08:27am 9.5 SSW 18 37 1013.6 - 9.4 - - - - - - -
19/08:24am 9.6 S 7 16 1013.6 - 9.4 - - - - - - -
19/08:00am 9.6 SSW 20 35 1013.4 - 9.4 - - - - - - -
19/07:30am 9.8 SSW 19 36 1012.8 - 9.4 - - - - - - -
19/07:00am 9.0 SW 21 39 1012.6 - 9.4 - - - - - - -
19/06:43am 9.8 SW 29 39 1012.3 - 9.4 - - - - - - -
19/06:42am 9.7 SW 30 39 1012.3 - 9.4 - - - - - - -
19/06:30am 9.6 SSW 17 30 1012.2 - 9.4 - - - - - - -
19/06:06am 9.6 SW 15 38 1012.0 - 9.4 - - - - - - -
19/06:00am 9.3 SW 14 31 1012.0 - 9.4 - - - - - - -
19/05:30am 9.6 SW 24 44 1011.6 - 9.4 - - - - - - -
19/05:00am 9.8 SSW 24 43 1011.5 - 9.4 - - - - - - -
19/04:30am 9.7 SW 27 43 1011.2 - 9.4 - - - - - - -
19/04:00am 9.7 SSW 28 43 1011.1 - 9.4 - - - - - - -
19/03:59am 9.6 SW 29 43 1011.1 - 9.4 - - - - - - -
19/03:30am 9.2 SW 15 33 1011.2 - 9.4 - - - - - - -
19/03:24am 9.1 SW 15 34 1011.1 - 9.4 - - - - - - -
19/03:20am 9.1 SW 14 34 1011.0 - 9.4 - - - - - - -
19/03:14am 8.7 SW 30 42 1011.1 - 9.4 - - - - - - -
19/03:01am 9.8 SW 15 34 1011.0 - 9.4 - - - - - - -
19/03:00am 9.8 SW 14 34 1010.9 - 9.4 - - - - - - -
19/02:30am 9.5 SW 17 35 1011.1 - 9.4 - - - - - - -
19/02:00am 9.8 SW 16 40 1010.9 - 9.4 - - - - - - -
19/01:30am 9.9 SW 18 36 1010.8 - 9.4 - - - - - - -
19/01:00am 9.9 SW 21 42 1010.7 - 9.4 - - - - - - -
19/12:30am 9.8 SW 22 44 1010.7 - 9.4 - - - - - - -
19/12:00am 9.7 SW 29 41 1010.7 - 9.4 Recent precip. - - - - - -
 
Date/Time
EST
Temp

°C
Wind Pressure Rain
since 9am
mm
Weather Cloud Vis
km
Sea
Height
m
Swell
Dir
 
Speed
knots
Gust
knots
hPa Trend Height
m
Period
s
Dir
18/11:30pm 9.6 SW 17 34 1010.9 - 9.4 - - - - - - -
18/11:00pm 9.7 SW 16 35 1010.5 - 9.2 - - - - - - -
18/10:30pm 9.9 WSW 17 41 1010.5 - 9.2 - - - - - - -
18/10:00pm 8.9 WSW 18 38 1010.7 - 9.2 - - - - - - -
18/09:30pm 9.7 SW 16 36 1010.6 - 9.2 - - - - - - -
18/09:10pm 8.7 SW 18 29 1010.6 - 9.2 - - - - - - -
18/09:09pm 8.6 SW 19 29 1010.5 - 9.2 - - - - - - -
18/09:06pm 8.4 SW 30 45 1010.4 - 9.2 - - - - - - -
18/09:03pm 8.9 SW 16 44 1010.5 - 9.0 - - - - - - -
18/09:00pm 9.2 WSW 13 33 1010.3 - 9.0 Recent precip. - - - - - -
18/08:35pm 8.8 SW 15 39 1009.9 - 8.8 - - - - - - -
18/08:30pm 9.1 W 12 25 1009.9 - 8.8 - - - - - - -
18/08:12pm 8.6 WSW 15 34 1010.2 - 8.4 - - - - - - -
18/08:00pm 8.8 WSW 13 39 1009.7 - 7.4 - - - - - - -
18/07:30pm 8.7 SW 17 39 1009.7 - 6.0 - - - - - - -
18/07:03pm 9.1 WSW 15 40 1009.2 - 4.4 - - - - - - -
18/07:00pm 10.1 WSW 13 32 1009.2 - 3.8 - - - - - - -
18/06:34pm 9.1 SW 17 34 1009.1 - 3.8 - - - - - - -
18/06:30pm 8.9 SW 30 48 1008.8 - 3.8 - - - - - - -
18/06:00pm 9.6 WSW 18 45 1008.5 - 3.4 - - - - - - -
18/05:30pm 10.4 SW 18 38 1008.5 - 3.4 - - - - - - -
18/05:17pm 10.9 SSW 29 48 1007.8 - 3.4 - - - - - - -
18/05:00pm 11.2 WSW 18 40 1007.6 - 3.4 - - - - - - -
18/04:30pm 11.2 WSW 17 41 1007.2 - 3.4 - - - - - - -
18/04:03pm 11.2 WSW 20 38 1006.9 - 3.4 - - - - - - -
18/04:00pm 11.2 SW 23 36 1006.7 - 3.4 - - - - - - -
18/03:30pm 11.1 WSW 18 36 1006.5 - 3.4 - - - - - - -
18/03:00pm 11.3 WSW 15 31 1006.5 - 3.4 - - - - - - -
18/02:45pm 11.1 WSW 15 33 1006.7 - 3.4 - - - - - - -
18/02:30pm 11.2 WSW 14 32 1006.7 - 3.4 - - - - - - -
18/02:07pm 10.9 WSW 16 27 1006.9 - 3.4 - - - - - - -
18/02:00pm 10.9 NW 6 16 1006.8 - 3.4 - - - - - - -
18/01:30pm 10.5 WNW 6 16 1007.0 - 3.4 - - - - - - -
18/01:00pm 10.8 W 8 23 1006.7 - 3.0 - - - - - - -
18/12:30pm 10.3 WSW 11 19 1006.3 - 3.0 - - - - - - -
18/12:00pm 10.5 W 8 20 1007.2 - 2.6 Rain - - - - - -
18/11:30am 10.5 W 10 25 1007.7 - 2.4 - - - - - - -
18/11:00am 9.5 WSW 12 32 1007.7 - 1.8 - - - - - - -
18/10:48am 10.7 SW 16 39 1007.6 - 0.4 - - - - - - -
18/10:30am 15.3 NW 6 10 1007.4 - 0.0 - - - - - - -
18/10:00am 16.0 N 10 16 1007.1 - 0.0 - - - - - - -
18/09:30am 15.5 N 13 19 1007.3 - 0.0 - - - - - - -
18/09:00am 15.3 N 11 16 1007.7 - 0.0 - - - - - - -
18/08:30am 14.6 N 13 16 1008.2 - 0.0 - - - - - - -
18/08:00am 13.3 N 15 18 1008.2 - 0.0 - - - - - - -
18/07:30am 13.0 N 18 23 1008.6 - 0.0 - - - - - - -
18/07:00am 13.0 N 13 16 1008.7 - 0.0 - - - - - - -
18/06:30am 13.1 N 11 17 1009.1 - 0.0 - - - - - - -
18/06:00am 13.5 NNW 9 14 1009.6 - 0.0 - - - - - - -
18/05:30am 14.3 NNW 14 20 1009.8 - 0.0 - - - - - - -
18/05:00am 14.2 NNW 16 22 1010.1 - 0.0 - - - - - - -
18/04:30am 14.6 NNW 13 22 1010.5 - 0.0 - - - - - - -
18/04:00am 15.2 NW 17 23 1010.6 - 0.0 - - - - - - -
18/03:30am 15.2 NW 17 21 1011.0 - 0.0 - - - - - - -
18/03:00am 15.4 NW 17 24 1011.4 - 0.0 - - - - - - -
18/02:30am 15.2 NW 17 24 1012.0 - 0.0 - - - - - - -
18/02:00am 14.9 NW 16 22 1012.2 - 0.0 - - - - - - -
18/01:30am 14.3 N 9 18 1012.9 - 0.0 - - - - - - -
18/01:00am 14.1 NNW 12 17 1013.3 - 0.0 - - - - - - -
18/12:30am 13.9 N 10 16 1013.7 - 0.0 - - - - - - -
18/12:00am 13.9 N 10 17 1014.1 - 0.0 - - - - - - -
 
Date/Time
EST
Temp

°C
Wind Pressure Rain
since 9am
mm
Weather Cloud Vis
km
Sea
Height
m
Swell
Dir
 
Speed
knots
Gust
knots
hPa Trend Height
m
Period
s
Dir
17/11:30pm 14.2 NNW 13 20 1014.6 - 0.0 - - - - - - -
17/11:00pm 13.9 N 12 21 1014.8 - 0.0 - - - - - - -
17/10:30pm 13.8 N 14 18 1015.4 - 0.0 - - - - - - -
17/10:00pm 13.8 N 15 19 1015.7 - 0.0 - - - - - - -
17/09:30pm 14.0 N 18 22 1016.1 - 0.0 - - - - - - -
17/09:00pm 14.0 N 18 22 1016.3 - 0.0 - - - - - - -
17/08:30pm 14.0 N 18 23 1016.6 - 0.0 - - - - - - -
17/08:00pm 14.1 N 19 23 1016.8 - 0.0 - - - - - - -
17/07:30pm 14.3 N 17 23 1017.0 - 0.0 - - - - - - -
17/07:00pm 14.2 N 18 24 1017.2 - 0.0 - - - - - - -
17/06:30pm 14.3 N 16 23 1017.2 - 0.0 - - - - - - -
17/06:00pm 14.3 NNE 17 24 1017.2 - 0.0 - - - - - - -
17/05:30pm 14.2 N 16 22 1017.3 - 0.0 - - - - - - -
17/05:00pm 14.4 N 17 23 1017.2 - 0.0 - - - - - - -
17/04:30pm 14.6 NNE 16 22 1017.4 - 0.0 - - - - - - -
17/04:00pm 15.0 N 15 21 1017.6 - 0.0 - - - - - - -
17/03:30pm 15.3 NNE 14 19 1018.0 - 0.0 - - - - - - -
17/03:00pm 16.0 NNE 13 20 1018.3 - 0.0 - - - - - - -
17/02:30pm 16.5 N 12 17 1018.4 - 0.0 - - - - - - -
17/02:00pm 16.8 N 12 17 1018.7 - 0.0 - - - - - - -
17/01:30pm 16.4 N 14 20 1019.1 - 0.0 - - - - - - -
17/01:00pm 16.3 N 15 18 1019.5 - 0.0 - - - - - - -
17/12:30pm 16.3 N 12 16 1019.9 - 0.0 - - - - - - -
17/12:00pm 16.1 N 11 14 1020.3 - 0.0 - - - - - - -
17/11:30am 16.1 N 11 16 1020.7 - 0.0 - - - - - - -
17/11:00am 16.4 N 11 13 1020.8 - 0.0 - - - - - - -
17/10:30am 16.2 N 11 14 1020.8 - 0.0 - - - - - - -
17/10:00am 15.8 N 10 13 1020.8 - 0.0 - - - - - - -
17/09:30am 15.1 N 11 15 1021.0 - 0.0 - - - - - - -
17/09:00am 13.7 N 13 15 1021.0 - 0.2 - - - - - - -
17/08:30am 14.3 N 13 16 1021.1 - 0.2 - - - - - - -
17/08:00am 13.8 NNE 12 15 1020.9 - 0.2 - - - - - - -
17/07:30am 13.3 N 13 17 1020.7 - 0.2 - - - - - - -
17/07:00am 12.8 N 11 15 1020.6 - 0.2 - - - - - - -
17/06:30am 12.5 N 8 13 1020.5 - 0.2 - - - - - - -
17/06:00am 12.5 N 9 14 1020.4 - 0.2 - - - - - - -
17/05:30am 12.6 N 9 13 1020.4 - 0.2 - - - - - - -
17/05:00am 12.6 N 12 16 1020.4 - 0.2 - - - - - - -
17/04:30am 12.7 N 12 15 1020.3 - 0.2 - - - - - - -
17/04:00am 12.7 N 12 16 1020.1 - 0.2 - - - - - - -
17/03:30am 12.8 N 14 18 1020.1 - 0.2 - - - - - - -
17/03:00am 12.9 N 15 20 1020.1 - 0.2 - - - - - - -
17/02:30am 13.0 N 15 19 1020.1 - 0.2 - - - - - - -
17/02:00am 13.0 N 16 20 1020.1 - 0.2 - - - - - - -
17/01:30am 13.2 N 16 20 1020.5 - 0.2 - - - - - - -
17/01:00am 13.2 N 17 21 1020.5 - 0.2 - - - - - - -
17/12:30am 13.4 N 16 21 1020.6 - 0.2 - - - - - - -
17/12:00am 13.3 N 16 22 1020.7 - 0.2 - - - - - - -
 
Date/Time
EST
Temp

°C
Wind Pressure Rain
since 9am
mm
Weather Cloud Vis
km
Sea
Height
m
Swell
Dir
 
Speed
knots
Gust
knots
hPa Trend Height
m
Period
s
Dir
16/11:30pm 13.4 N 17 21 1020.9 - 0.2 - - - - - - -
16/11:00pm 13.4 NNE 16 24 1021.0 - 0.2 - - - - - - -
16/10:30pm 13.3 NNE 17 24 1021.0 - 0.2 - - - - - - -
16/10:00pm 13.4 NNE 18 25 1021.0 - 0.2 - - - - - - -
16/09:30pm 13.4 NNE 18 25 1020.9 - 0.2 - - - - - - -
16/09:00pm 13.4 NNE 17 23 1020.9 - 0.2 - - - - - - -

Other Formats:

Comma delimited format used in spreadsheet applications
http://www.bom.gov.au/fwo/IDT60701/IDT60701.95986.axf

JavaScript Object Notation format (JSON) in row-major order
http://www.bom.gov.au/fwo/IDT60701/IDT60701.95986.json